Time;durP1;ratioP1;P1;durP2;ratioP2;P2;SDS_P1;SDS_P2;PMS_P1;PMS_P2;Temp;Humidity;BMP_temperature;BMP_pressure;BME280_temperature;BME280_humidity;BME280_pressure;Samples;Min_cycle;Max_cycle;Signal;HPM_P1;HPM_P2
2022/01/22 00:01:09;;;;;;;27.70;19.55;;;4.80;99.90;;;;;;6144507;23;20157;-84
2022/01/22 00:03:34;;;;;;;43.07;18.27;;;4.80;99.90;;;;;;6147797;23;20611;-84
2022/01/22 00:06:00;;;;;;;27.20;18.57;;;4.80;99.90;;;;;;6146339;23;20137;-84
2022/01/22 00:08:26;;;;;;;27.00;17.33;;;4.80;99.90;;;;;;6147492;23;20254;-85
2022/01/22 00:10:52;;;;;;;33.63;19.40;;;4.70;99.90;;;;;;6158236;23;20149;-83
2022/01/22 00:15:45;;;;;;;22.42;14.00;;;4.60;99.90;;;;;;6155330;23;20153;-85
2022/01/22 00:18:11;;;;;;;38.25;19.00;;;4.80;99.90;;;;;;6155253;23;20256;-85
2022/01/22 00:20:37;;;;;;;27.20;16.90;;;4.70;99.90;;;;;;6146799;23;20149;-85
2022/01/22 00:23:04;;;;;;;30.27;16.33;;;4.20;99.90;;;;;;6146099;23;20403;-85
2022/01/22 00:25:39;;;;;;;13.82;10.95;;;4.00;99.90;;;;;;6147322;23;20520;-85
2022/01/22 00:28:12;;;;;;;22.80;14.45;;;4.70;99.90;;;;;;6148368;23;20635;-83
2022/01/22 00:30:38;;;;;;;18.70;13.70;;;4.90;99.90;;;;;;6144723;23;20555;-85
2022/01/22 00:33:04;;;;;;;22.73;14.87;;;;;;;;;;6148385;23;20152;-85
2022/01/22 00:35:30;;;;;;;25.98;16.30;;;4.90;99.90;;;;;;6145902;23;20497;-86
2022/01/22 00:37:55;;;;;;;22.50;16.37;;;4.80;99.90;;;;;;6148333;23;20144;-85
2022/01/22 00:40:21;;;;;;;32.07;14.10;;;4.60;99.90;;;;;;6147819;23;20154;-85
2022/01/22 00:42:50;;;;;;;16.85;13.25;;;4.70;99.90;;;;;;6144687;23;20161;-85
2022/01/22 00:45:19;;;;;;;31.98;20.38;;;7.20;99.90;;;;;;6145953;23;20167;-84
2022/01/22 00:47:45;;;;;;;22.20;15.63;;;7.30;99.90;;;;;;6144186;23;20632;-84
2022/01/22 00:50:14;;;;;;;24.08;16.40;;;4.60;99.90;;;;;;6146196;23;20156;-83
2022/01/22 00:52:40;;;;;;;32.85;23.58;;;4.80;99.90;;;;;;6143930;23;20537;-84
2022/01/22 00:55:07;;;;;;;23.85;19.13;;;4.70;99.90;;;;;;6145886;23;20165;-83
2022/01/22 00:57:32;;;;;;;29.38;19.60;;;4.80;99.90;;;;;;6146492;23;20153;-83
2022/01/22 00:59:58;;;;;;;24.53;19.40;;;4.70;99.90;;;;;;6146326;23;20171;-84
2022/01/22 01:02:24;;;;;;;29.73;19.43;;;4.70;99.90;;;;;;6143762;23;20479;-84
2022/01/22 01:04:49;;;;;;;22.60;15.00;;;4.80;99.90;;;;;;6147643;23;20219;-83
2022/01/22 01:07:15;;;;;;;35.60;19.70;;;4.80;99.90;;;;;;6145248;23;20231;-84
2022/01/22 01:09:41;;;;;;;28.20;18.57;;;4.80;99.90;;;;;;6145653;23;20247;-84
2022/01/22 01:12:10;;;;;;;17.83;14.67;;;4.70;99.90;;;;;;6145661;23;20372;-83
2022/01/22 01:14:50;;;;;;;39.78;19.63;;;4.70;99.90;;;;;;6147111;23;20212;-84
2022/01/22 01:32:12;;;;;;;24.58;13.40;;;4.60;99.90;;;;;;6147952;23;20219;-83
2022/01/22 01:34:02;;;;;;;28.58;18.05;;;4.00;99.90;;;;;;6147627;23;20243;-84
2022/01/22 01:36:27;;;;;;;25.60;18.90;;;4.10;99.90;;;;;;6145811;23;20137;-84
2022/01/22 01:38:58;;;;;;;18.90;12.87;;;7.50;99.90;;;;;;6146005;23;20499;-85
2022/01/22 01:41:33;;;;;;;26.98;18.90;;;4.70;99.90;;;;;;6145703;23;20149;-83
2022/01/22 01:43:59;;;;;;;28.77;20.05;;;4.60;99.90;;;;;;6148382;23;20187;-84
2022/01/22 01:46:28;;;;;;;25.87;17.80;;;5.00;99.90;;;;;;6145486;23;20159;-84
2022/01/22 01:48:54;;;;;;;31.30;18.70;;;4.60;99.90;;;;;;6147502;23;20596;-83
2022/01/22 01:51:22;;;;;;;25.97;16.93;;;5.00;99.90;;;;;;6138549;23;20220;-84
2022/01/22 01:54:24;;;;;;;24.20;16.60;;;4.50;99.90;;;;;;6147736;23;20155;-83
2022/01/22 01:59:33;;;;;;;27.20;18.92;;;4.70;99.90;;;;;;6149683;23;20223;-83
2022/01/22 02:01:58;;;;;;;18.00;14.00;;;4.60;99.90;;;;;;6148031;23;20390;-83
2022/01/22 02:04:24;;;;;;;27.43;19.77;;;4.90;99.90;;;;;;6148719;23;20204;-83
2022/01/22 02:06:50;;;;;;;28.33;19.37;;;4.60;99.90;;;;;;6147202;23;20184;-83
2022/01/22 02:09:15;;;;;;;25.97;16.00;;;4.50;99.90;;;;;;6149224;23;20629;-84
2022/01/22 02:11:42;;;;;;;27.00;18.10;;;4.60;99.90;;;;;;6147602;23;20180;-83
2022/01/22 02:25:07;;;;;;;45.38;26.05;;;4.30;99.90;;;;;;6149060;23;20167;-84
2022/01/22 02:27:33;;;;;;;34.75;24.42;;;4.70;99.90;;;;;;6147091;23;20204;-84
2022/01/22 02:29:58;;;;;;;29.67;21.40;;;5.70;99.90;;;;;;6149148;23;20156;-84
2022/01/22 02:32:54;;;;;;;27.23;16.93;;;4.50;99.90;;;;;;6147267;23;20167;-84
2022/01/22 02:35:31;;;;;;;35.53;19.85;;;4.70;99.90;;;;;;6123047;23;20153;-85
2022/01/22 02:38:02;;;;;;;30.40;21.38;;;5.80;99.90;;;;;;6149112;23;20132;-84
2022/01/22 02:40:47;;;;;;;49.92;27.40;;;4.00;99.90;;;;;;6122904;23;20527;-83
2022/01/22 02:43:13;;;;;;;34.58;24.67;;;5.10;99.90;;;;;;6149199;23;20239;-84
2022/01/22 02:45:41;;;;;;;40.97;25.60;;;4.00;99.90;;;;;;6146824;23;20183;-84
2022/01/22 02:48:07;;;;;;;40.38;24.23;;;6.20;99.90;;;;;;6123287;23;20431;-84
2022/01/22 02:50:33;;;;;;;42.07;26.70;;;4.50;99.90;;;;;;6147084;23;20469;-84
2022/01/22 02:53:07;;;;;;;34.85;23.88;;;4.70;99.90;;;;;;6123867;23;20212;-84
2022/01/22 02:55:33;;;;;;;42.90;26.75;;;4.60;99.90;;;;;;6148365;23;20138;-83
2022/01/22 02:57:59;;;;;;;40.22;24.17;;;4.30;99.90;;;;;;6149642;23;20141;-83
2022/01/22 03:00:26;;;;;;;38.45;23.52;;;4.70;99.90;;;;;;6122700;23;20171;-83
2022/01/22 03:02:52;;;;;;;35.33;25.45;;;4.80;99.90;;;;;;6147205;23;20157;-83
2022/01/22 03:05:18;;;;;;;40.03;25.33;;;4.70;99.90;;;;;;6148624;23;20191;-83
2022/01/22 03:07:49;;;;;;;38.70;22.58;;;4.70;99.90;;;;;;6146101;23;20327;-85
2022/01/22 03:10:19;;;;;;;40.72;23.45;;;4.70;99.90;;;;;;6122824;23;20507;-84
2022/01/22 03:23:04;;;;;;;32.55;22.20;;;4.70;99.90;;;;;;6146474;23;20167;-85
2022/01/22 03:28:00;;;;;;;36.00;22.35;;;5.20;99.90;;;;;;6147806;23;20211;-84
2022/01/22 03:30:26;;;;;;;43.93;27.97;;;4.80;99.90;;;;;;6148509;23;20601;-83
2022/01/22 03:32:55;;;;;;;44.72;25.27;;;4.70;99.90;;;;;;6146576;23;20354;-84
2022/01/22 03:37:51;;;;;;;39.00;24.70;;;6.10;99.90;;;;;;6146727;23;20244;-84
2022/01/22 03:40:18;;;;;;;33.58;21.02;;;4.30;99.90;;;;;;6148420;23;20150;-84
2022/01/22 03:42:44;;;;;;;35.58;21.73;;;4.70;99.90;;;;;;6146614;23;20155;-84
2022/01/22 03:45:11;;;;;;;34.88;20.05;;;4.80;99.90;;;;;;6148223;23;20157;-84
2022/01/22 03:47:46;;;;;;;41.13;24.48;;;4.80;99.90;;;;;;6145785;23;20847;-84
2022/01/22 03:50:14;;;;;;;34.92;25.02;;;4.80;99.90;;;;;;6148429;23;20219;-84
2022/01/22 03:52:40;;;;;;;39.00;26.23;;;4.90;99.90;;;;;;6121113;23;20192;-83
2022/01/22 03:55:10;;;;;;;35.27;25.33;;;7.70;99.90;;;;;;6122687;23;20167;-83
2022/01/22 03:57:36;;;;;;;34.05;24.05;;;4.90;99.90;;;;;;6122150;23;20153;-84
2022/01/22 04:00:06;;;;;;;35.55;22.15;;;4.90;99.90;;;;;;6149785;23;20176;-83
2022/01/22 04:05:01;;;;;;;37.30;24.37;;;4.90;99.90;;;;;;6148431;23;20200;-84
2022/01/22 04:10:13;;;;;;;31.48;22.40;;;4.50;99.90;;;;;;6148528;23;20232;-84
2022/01/22 04:13:00;;;;;;;40.28;25.92;;;5.00;99.90;;;;;;6146066;23;20149;-83
2022/01/22 04:15:28;;;;;;;34.33;23.52;;;5.00;99.90;;;;;;6121947;23;20153;-84
2022/01/22 04:28:42;;;;;;;40.42;25.98;;;5.00;99.90;;;;;;6147145;23;20195;-85
2022/01/22 04:31:08;;;;;;;43.05;27.88;;;4.80;99.90;;;;;;6145674;23;20181;-86
2022/01/22 04:33:33;;;;;;;43.30;27.20;;;5.00;99.90;;;;;;6147984;23;20191;-84
2022/01/22 04:35:59;;;;;;;46.30;29.20;;;4.90;99.90;;;;;;6146057;23;20574;-84
2022/01/22 04:38:25;;;;;;;43.20;26.10;;;5.00;99.90;;;;;;6121235;23;20240;-85
2022/01/22 04:40:50;;;;;;;37.47;24.63;;;5.00;99.90;;;;;;6145089;23;20231;-84
2022/01/22 04:43:16;;;;;;;45.60;28.97;;;5.90;99.90;;;;;;6146861;23;20455;-84
2022/01/22 04:56:27;;;;;;;43.85;25.52;;;4.30;99.90;;;;;;6145266;23;20163;-83
2022/01/22 04:58:53;;;;;;;39.60;25.43;;;5.10;99.90;;;;;;6147317;23;20711;-84
2022/01/22 05:01:19;;;;;;;32.70;19.73;;;5.20;99.90;;;;;;6146267;23;20198;-84
2022/01/22 05:03:44;;;;;;;32.40;22.20;;;5.10;99.90;;;;;;6121432;23;20245;-84
2022/01/22 05:06:10;;;;;;;45.47;23.23;;;5.10;99.90;;;;;;6119293;23;20228;-84
2022/01/22 05:08:35;;;;;;;42.43;25.97;;;5.10;99.90;;;;;;6121335;23;20196;-84
2022/01/22 05:11:01;;;;;;;42.40;26.07;;;5.10;99.90;;;;;;6146075;23;20236;-84
2022/01/22 05:13:26;;;;;;;36.83;24.83;;;5.10;99.90;;;;;;6147751;23;20148;-85
2022/01/22 05:15:52;;;;;;;42.50;26.50;;;5.10;99.90;;;;;;6146072;23;20640;-84
2022/01/22 05:18:18;;;;;;;41.07;26.23;;;5.10;99.90;;;;;;6149324;23;20141;-84
2022/01/22 05:20:50;;;;;;;40.77;26.60;;;5.10;99.90;;;;;;6145370;23;20335;-84
2022/01/22 05:23:21;;;;;;;46.30;27.67;;;5.20;99.90;;;;;;6147778;23;20371;-85
2022/01/22 05:25:53;;;;;;;44.05;25.98;;;5.40;99.90;;;;;;6145242;23;20152;-85
2022/01/22 05:39:18;;;;;;;46.70;26.80;;;5.00;99.90;;;;;;6156444;23;20179;-85
2022/01/22 05:42:01;;;;;;;37.78;22.30;;;5.30;99.90;;;;;;6156354;23;20152;-85
2022/01/22 05:44:28;;;;;;;37.83;24.33;;;4.30;99.90;;;;;;6154654;23;20152;-85
2022/01/22 05:46:57;;;;;;;39.08;23.85;;;4.90;99.90;;;;;;6146644;23;20161;-84
2022/01/22 05:49:24;;;;;;;47.05;29.17;;;5.10;99.90;;;;;;6149606;23;20181;-84
2022/01/22 05:51:53;;;;;;;50.78;28.95;;;5.20;99.90;;;;;;6146696;23;20520;-84
2022/01/22 05:59:49;;;;;;;48.67;27.33;;;5.30;99.90;;;;;;6147460;23;20158;-85
2022/01/22 06:02:16;;;;;;;42.40;26.00;;;6.10;99.90;;;;;;6119382;23;20161;-84
2022/01/22 06:04:44;;;;;;;47.30;30.45;;;6.40;99.90;;;;;;6120617;23;20183;-85
2022/01/22 06:07:11;;;;;;;46.63;29.83;;;6.90;99.90;;;;;;6145293;23;20160;-85
2022/01/22 06:09:40;;;;;;;44.17;27.42;;;4.90;99.90;;;;;;6146554;23;20270;-85
2022/01/22 06:14:33;;;;;;;44.35;27.00;;;5.40;99.90;;;;;;6147444;23;20165;-84
2022/01/22 06:16:59;;;;;;;43.80;27.95;;;5.00;99.90;;;;;;6145514;23;20256;-85
2022/01/22 06:19:24;;;;;;;45.33;28.20;;;5.40;99.90;;;;;;6147281;23;20164;-85
2022/01/22 06:21:51;;;;;;;48.50;28.03;;;5.70;99.90;;;;;;6119557;23;20846;-85
2022/01/22 06:24:21;;;;;;;50.47;30.63;;;6.40;99.90;;;;;;6124291;23;20498;-85
2022/01/22 06:26:47;;;;;;;47.72;28.67;;;5.50;99.90;;;;;;6118552;23;20157;-87
2022/01/22 06:29:13;;;;;;;42.35;26.55;;;6.00;99.90;;;;;;6146364;23;20180;-86
2022/01/22 06:31:39;;;;;;;45.80;26.83;;;5.70;99.90;;;;;;6118872;23;20173;-84
2022/01/22 06:34:05;;;;;;;44.70;27.60;;;5.40;99.90;;;;;;6120825;23;20160;-85
2022/01/22 06:36:31;;;;;;;47.95;28.27;;;5.60;99.90;;;;;;6144810;23;20384;-85
2022/01/22 06:39:10;;;;;;;49.95;29.35;;;5.40;99.90;;;;;;6121067;23;20160;-85
2022/01/22 06:41:44;;;;;;;44.40;26.73;;;5.20;99.90;;;;;;6149750;23;20129;-85
2022/01/22 06:44:20;;;;;;;44.78;26.40;;;5.80;99.90;;;;;;6150218;23;20149;-85
2022/01/22 06:46:48;;;;;;;44.90;28.42;;;5.70;99.90;;;;;;6122230;23;20489;-84
2022/01/22 06:49:14;;;;;;;47.20;28.45;;;6.30;99.90;;;;;;6123063;23;20620;-84
2022/01/22 06:51:40;;;;;;;51.10;26.50;;;5.70;99.90;;;;;;6146399;23;20242;-86
2022/01/22 06:54:08;;;;;;;43.47;28.90;;;5.70;99.90;;;;;;6149950;23;20388;-85
2022/01/22 06:56:34;;;;;;;49.33;30.38;;;5.70;99.90;;;;;;6147462;23;20387;-85
2022/01/22 06:58:59;;;;;;;48.67;27.87;;;5.60;99.90;;;;;;6122917;23;20161;-85
2022/01/22 07:01:27;;;;;;;48.50;29.60;;;5.70;99.90;;;;;;6147450;23;20157;-85
2022/01/22 07:03:54;;;;;;;52.97;28.65;;;5.70;99.90;;;;;;6149397;23;20199;-84
2022/01/22 07:06:20;;;;;;;52.45;30.38;;;5.70;99.90;;;;;;6146550;23;20242;-84
2022/01/22 07:08:45;;;;;;;57.70;30.30;;;6.40;99.90;;;;;;6148877;23;20179;-84
2022/01/22 07:11:11;;;;;;;59.20;30.93;;;5.70;99.90;;;;;;6146473;23;20152;-85
2022/01/22 07:13:58;;;;;;;52.57;30.17;;;5.60;99.90;;;;;;6148870;23;20223;-85
2022/01/22 07:16:24;;;;;;;65.63;35.78;;;5.70;99.90;;;;;;6120821;23;20350;-85
2022/01/22 07:18:49;;;;;;;55.10;31.40;;;5.40;99.90;;;;;;6149028;23;20208;-85
2022/01/22 07:21:20;;;;;;;59.87;32.00;;;5.50;99.90;;;;;;6120788;23;20164;-85
2022/01/22 07:26:13;;;;;;;55.42;32.60;;;6.70;99.90;;;;;;6146697;23;20157;-85
2022/01/22 07:28:39;;;;;;;62.33;31.92;;;6.90;99.90;;;;;;6148488;23;20379;-85
2022/01/22 07:31:05;;;;;;;59.13;34.83;;;5.00;99.90;;;;;;6147038;23;20148;-84
2022/01/22 07:33:32;;;;;;;57.55;32.25;;;5.50;99.90;;;;;;6148733;23;20392;-85
2022/01/22 07:35:58;;;;;;;66.20;32.65;;;5.60;99.90;;;;;;6147171;23;20204;-85
2022/01/22 07:38:23;;;;;;;57.70;31.03;;;5.70;99.90;;;;;;6124333;23;20585;-84
2022/01/22 07:40:49;;;;;;;50.23;28.23;;;5.70;99.90;;;;;;6121768;23;20985;-85
2022/01/22 07:43:16;;;;;;;61.93;32.90;;;5.50;99.90;;;;;;6123959;23;20155;-86
2022/01/22 07:45:42;;;;;;;73.07;32.85;;;5.60;99.90;;;;;;6147612;23;20387;-85
2022/01/22 07:48:08;;;;;;;53.20;31.58;;;5.70;99.90;;;;;;6148774;23;20188;-85
2022/01/22 07:50:34;;;;;;;58.67;30.80;;;5.70;99.90;;;;;;6147428;23;20160;-85
2022/01/22 07:53:01;;;;;;;56.27;31.00;;;5.50;99.90;;;;;;6146686;23;20199;-86
2022/01/22 07:55:28;;;;;;;59.40;32.70;;;5.50;99.90;;;;;;6148417;23;20464;-86
2022/01/22 07:57:53;;;;;;;50.20;29.77;;;5.40;99.90;;;;;;6145775;23;20164;-85
2022/01/22 08:00:19;;;;;;;53.20;26.27;;;5.70;99.90;;;;;;6147123;23;20165;-85
2022/01/22 08:02:45;;;;;;;58.53;30.00;;;5.70;99.90;;;;;;6141212;23;20161;-85
2022/01/22 08:05:11;;;;;;;49.15;27.52;;;5.80;99.90;;;;;;6143254;23;20404;-84
2022/01/22 08:07:38;;;;;;;45.13;26.07;;;5.70;99.90;;;;;;6144162;23;20488;-85
2022/01/22 08:10:08;;;;;;;50.88;26.25;;;5.80;99.90;;;;;;6141583;23;20161;-85
2022/01/22 08:12:35;;;;;;;46.97;25.98;;;5.80;99.90;;;;;;6144632;23;20164;-85
2022/01/22 08:15:07;;;;;;;43.45;25.83;;;5.80;99.90;;;;;;6142918;23;20636;-85
2022/01/22 08:17:33;;;;;;;38.22;23.90;;;5.80;99.90;;;;;;6143677;23;20553;-85
2022/01/22 08:19:58;;;;;;;41.50;26.40;;;5.80;99.90;;;;;;6142883;23;20222;-84
2022/01/22 08:22:26;;;;;;;44.17;26.67;;;5.80;99.90;;;;;;6145595;23;20195;-84
2022/01/22 08:24:54;;;;;;;45.90;26.40;;;5.50;99.90;;;;;;6140773;23;20168;-85
2022/01/22 08:29:56;;;;;;;42.38;23.98;;;5.90;99.90;;;;;;6143083;23;20536;-84
2022/01/22 08:33:34;;;;;;;35.75;23.00;;;5.40;99.90;;;;;;6142322;23;20168;-85
2022/01/22 08:37:54;;;;;;;35.28;21.90;;;5.40;99.90;;;;;;6142400;23;20530;-85
2022/01/22 08:40:19;;;;;;;33.58;22.20;;;6.00;99.90;;;;;;6142853;23;20149;-85
2022/01/22 08:42:45;;;;;;;32.63;22.20;;;6.80;99.90;;;;;;6143478;23;20187;-85
2022/01/22 08:45:12;;;;;;;32.77;21.30;;;5.60;99.90;;;;;;6146978;23;20156;-85
2022/01/22 08:47:38;;;;;;;29.75;18.58;;;6.00;99.90;;;;;;6145761;23;20187;-86
2022/01/22 08:50:04;;;;;;;32.90;22.10;;;6.00;99.90;;;;;;6144602;23;20187;-84
2022/01/22 08:52:34;;;;;;;32.17;21.20;;;6.10;99.90;;;;;;6143235;23;20210;-85
2022/01/22 08:55:00;;;;;;;38.30;22.90;;;5.60;99.90;;;;;;6143073;23;20243;-85
2022/01/22 08:57:26;;;;;;;32.53;21.60;;;6.00;99.90;;;;;;6145493;23;20188;-85
2022/01/22 08:59:51;;;;;;;35.50;21.83;;;5.90;99.90;;;;;;6146393;23;20179;-86
2022/01/22 09:02:17;;;;;;;35.20;22.70;;;5.60;99.90;;;;;;6147369;23;20157;-82
2022/01/22 09:04:43;;;;;;;41.17;23.30;;;4.90;99.90;;;;;;6145058;23;20601;-85
2022/01/22 09:07:09;;;;;;;39.37;22.37;;;5.50;99.90;;;;;;6147885;23;20168;-86
2022/01/22 09:09:36;;;;;;;36.83;22.33;;;6.20;99.90;;;;;;6152557;23;20188;-85
2022/01/22 09:12:03;;;;;;;42.70;24.80;;;6.10;99.90;;;;;;6152976;23;20170;-86
2022/01/22 09:14:29;;;;;;;46.90;24.60;;;6.00;99.90;;;;;;6151144;23;20176;-86
2022/01/22 09:16:57;;;;;;;42.47;24.00;;;6.00;99.90;;;;;;6152289;23;20295;-86
2022/01/22 09:19:27;;;;;;;40.03;24.15;;;6.00;99.90;;;;;;6154880;23;20766;-86
2022/01/22 09:21:53;;;;;;;38.22;22.52;;;5.90;99.90;;;;;;6149666;23;20199;-87
2022/01/22 09:24:19;;;;;;;45.63;26.73;;;5.00;99.90;;;;;;6121049;23;20165;-85
2022/01/22 09:26:45;;;;;;;48.42;27.60;;;5.10;99.90;;;;;;6120228;23;20487;-86
2022/01/22 09:29:12;;;;;;;49.80;26.80;;;6.10;99.90;;;;;;6147020;23;20185;-86
2022/01/22 09:31:38;;;;;;;36.83;23.00;;;9.00;99.90;;;;;;6145018;23;20821;-85
2022/01/22 09:34:04;;;;;;;40.00;22.65;;;5.80;99.90;;;;;;6147493;23;20157;-86
2022/01/22 09:36:31;;;;;;;43.83;26.40;;;5.40;99.90;;;;;;6117113;23;20215;-87
2022/01/22 09:38:57;;;;;;;42.58;24.30;;;6.10;99.90;;;;;;6145816;23;20597;-86
2022/01/22 09:41:25;;;;;;;40.67;24.23;;;7.80;99.90;;;;;;6119737;23;20164;-86
2022/01/22 09:43:52;;;;;;;33.45;21.45;;;4.20;99.90;;;;;;6149061;23;20392;-86
2022/01/22 09:46:20;;;;;;;42.50;23.92;;;4.70;99.90;;;;;;6146334;23;20157;-85
2022/01/22 09:48:49;;;;;;;39.17;21.90;;;4.60;99.90;;;;;;6121332;23;20191;-87
2022/01/22 09:51:15;;;;;;;32.60;20.02;;;5.10;99.90;;;;;;6118882;23;20180;-87
2022/01/22 09:53:43;;;;;;;36.90;21.17;;;5.50;99.90;;;;;;6147864;23;20165;-85
2022/01/22 09:56:09;;;;;;;33.15;20.10;;;6.90;99.90;;;;;;6145788;23;20368;-87
2022/01/22 09:58:37;;;;;;;30.67;19.88;;;4.50;99.90;;;;;;6123286;23;20219;-87
2022/01/22 10:01:30;;;;;;;31.63;21.10;;;5.10;99.90;;;;;;6122271;23;20180;-86
2022/01/22 10:03:58;;;;;;;29.27;17.73;;;6.90;99.90;;;;;;6120999;23;20219;-87
2022/01/22 10:06:29;;;;;;;26.25;17.80;;;4.70;99.90;;;;;;6120660;23;20164;-86
2022/01/22 10:09:14;;;;;;;35.05;20.77;;;6.70;99.90;;;;;;6149596;23;20268;-86
2022/01/22 10:11:41;;;;;;;35.10;21.13;;;6.20;99.90;;;;;;6146521;23;20399;-87
2022/01/22 10:14:12;;;;;;;36.38;21.13;;;5.60;99.90;;;;;;6149128;23;20538;-86
2022/01/22 10:16:41;;;;;;;32.80;18.30;;;8.30;99.90;;;;;;6098296;23;20168;-88
2022/01/22 10:19:17;;;;;;;36.72;23.88;;;6.60;99.90;;;;;;6150691;23;20161;-87
2022/01/22 10:21:56;;;;;;;42.08;23.17;;;6.40;99.90;;;;;;6132070;23;20195;-87
2022/01/22 10:24:33;;;;;;;45.08;25.83;;;6.20;99.90;;;;;;6148983;23;20156;-87
2022/01/22 10:27:24;;;;;;;41.20;22.92;;;5.60;99.90;;;;;;6149592;23;20143;-87
2022/01/22 10:29:55;;;;;;;40.63;24.50;;;4.10;99.90;;;;;;6149483;23;20172;-86
2022/01/22 10:32:27;;;;;;;45.45;26.02;;;7.00;99.90;;;;;;6152318;23;20149;-85
2022/01/22 10:35:25;;;;;;;40.45;23.08;;;8.30;99.90;;;;;;6143527;23;20575;-85
2022/01/22 10:37:56;;;;;;;41.13;23.00;;;5.60;99.90;;;;;;6111176;23;20533;-86
2022/01/22 10:40:29;;;;;;;39.47;22.70;;;5.30;99.90;;;;;;6145173;23;20247;-85
2022/01/22 10:43:20;;;;;;;38.95;25.58;;;7.90;99.90;;;;;;6150635;23;20516;-88
2022/01/22 10:46:43;;;;;;;46.40;25.70;;;6.50;99.90;;;;;;6155872;23;20467;-86
2022/01/22 10:49:13;;;;;;;45.90;26.42;;;6.60;99.90;;;;;;6050414;23;20491;-87
2022/01/22 10:51:53;;;;;;;41.80;26.00;;;5.60;99.90;;;;;;6074379;23;20178;-87
2022/01/22 10:54:35;;;;;;;44.03;26.65;;;6.30;99.90;;;;;;6129475;23;20183;-87
2022/01/22 10:57:16;;;;;;;42.70;25.25;;;7.60;99.90;;;;;;6151529;23;20679;-86
2022/01/22 10:59:46;;;;;;;43.03;21.30;;;6.50;99.90;;;;;;6153366;23;20152;-86
2022/01/22 11:02:17;;;;;;;48.78;27.90;;;4.80;99.90;;;;;;6156020;23;20157;-85
2022/01/22 11:04:46;;;;;;;39.90;23.60;;;4.80;99.90;;;;;;6153052;23;20180;-86
2022/01/22 11:07:19;;;;;;;45.50;25.45;;;6.10;99.90;;;;;;6146788;23;20168;-86
2022/01/22 11:09:46;;;;;;;39.95;23.83;;;5.40;99.90;;;;;;6149396;23;20501;-87
2022/01/22 11:12:12;;;;;;;37.80;23.05;;;6.40;99.90;;;;;;6148749;23;20224;-86
2022/01/22 11:14:40;;;;;;;38.83;23.45;;;;;;;;;;6150862;23;20694;-86
2022/01/22 11:17:07;;;;;;;38.10;23.05;;;6.50;99.90;;;;;;6148197;23;20153;-85
2022/01/22 11:19:56;;;;;;;42.17;24.73;;;8.20;99.90;;;;;;6148730;23;20195;-86
2022/01/22 11:22:27;;;;;;;39.67;25.25;;;8.00;99.90;;;;;;6148893;23;20200;-85
2022/01/22 11:24:54;;;;;;;41.92;23.10;;;7.00;99.90;;;;;;6153222;23;20139;-88
2022/01/22 11:27:21;;;;;;;39.72;22.85;;;5.20;99.90;;;;;;6146688;23;20145;-86
2022/01/22 11:30:13;;;;;;;42.65;25.08;;;6.80;99.90;;;;;;6150408;23;20202;-87
2022/01/22 11:33:12;;;;;;;40.90;23.13;;;9.10;99.90;;;;;;6163456;23;20156;-87
2022/01/22 11:36:05;;;;;;;46.45;28.23;;;6.70;99.90;;;;;;6094961;23;20168;-86
2022/01/22 11:38:35;;;;;;;45.00;25.77;;;6.80;99.90;;;;;;6159341;23;20136;-87
2022/01/22 11:41:03;;;;;;;39.63;24.75;;;8.50;99.90;;;;;;6159636;23;20149;-85
2022/01/22 11:43:59;;;;;;;33.20;20.88;;;8.10;99.90;;;;;;6164902;23;20156;-86
2022/01/22 11:46:28;;;;;;;36.10;23.60;;;6.90;99.90;;;;;;6164083;23;20160;-86
2022/01/22 11:49:16;;;;;;;32.25;21.17;;;9.40;99.90;;;;;;6162464;23;20207;-88
2022/01/22 11:51:51;;;;;;;30.50;20.08;;;7.30;99.90;;;;;;6160179;23;20232;-85
2022/01/22 11:54:19;;;;;;;28.55;20.00;;;7.00;99.90;;;;;;6163451;23;20183;-87
2022/01/22 11:56:55;;;;;;;30.35;18.30;;;7.60;99.90;;;;;;6163387;23;20164;-86
2022/01/22 11:59:29;;;;;;;28.20;19.92;;;11.20;99.90;;;;;;6165607;23;20208;-87
2022/01/22 12:02:03;;;;;;;31.27;16.45;;;6.70;99.90;;;;;;6169426;23;20220;-87
2022/01/22 12:04:38;;;;;;;30.08;18.65;;;9.50;99.90;;;;;;6166881;23;20165;-87
2022/01/22 12:07:07;;;;;;;25.80;17.35;;;6.00;99.90;;;;;;6163601;23;20184;-87
2022/01/22 12:15:29;;;;;;;20.80;15.80;;;6.80;99.90;;;;;;6170486;23;20168;-88
2022/01/22 12:18:05;;;;;;;22.13;15.25;;;6.90;99.90;;;;;;6168834;23;20616;-87
2022/01/22 12:23:11;;;;;;;17.27;14.88;;;7.40;99.90;;;;;;6170811;23;20491;-87
2022/01/22 12:25:40;;;;;;;27.98;17.33;;;6.50;99.90;;;;;;6162996;23;20184;-87
2022/01/22 12:28:14;;;;;;;26.38;17.05;;;6.50;99.90;;;;;;6157032;23;20239;-86
2022/01/22 12:30:51;;;;;;;23.95;15.95;;;6.50;99.90;;;;;;6160785;23;20169;-88
2022/01/22 12:33:53;;;;;;;25.77;17.55;;;7.00;99.90;;;;;;6160589;23;20156;-88
2022/01/22 12:36:38;;;;;;;26.17;17.80;;;7.40;99.90;;;;;;6150225;23;20494;-86
2022/01/22 12:39:16;;;;;;;21.88;15.35;;;6.50;99.90;;;;;;6157784;23;20148;-88
2022/01/22 12:41:57;;;;;;;26.00;18.55;;;6.70;99.90;;;;;;6156377;23;20159;-86
2022/01/22 12:44:40;;;;;;;30.38;19.15;;;6.50;99.90;;;;;;6151323;23;20168;-87
2022/01/22 12:47:15;;;;;;;29.85;17.50;;;6.50;99.90;;;;;;6162138;23;20145;-87
2022/01/22 12:49:43;;;;;;;31.65;16.80;;;6.50;99.90;;;;;;6155879;23;20195;-88
2022/01/22 12:52:13;;;;;;;26.70;17.33;;;6.60;99.90;;;;;;6158087;23;20175;-86
2022/01/22 12:54:48;;;;;;;28.40;17.67;;;6.60;99.90;;;;;;6159661;23;20239;-85
2022/01/22 12:57:16;;;;;;;29.58;16.95;;;7.60;99.90;;;;;;6157845;23;20155;-86
2022/01/22 13:00:05;;;;;;;31.13;18.08;;;6.50;99.90;;;;;;6161678;23;20153;-88
2022/01/22 13:02:41;;;;;;;20.10;13.38;;;7.00;99.90;;;;;;6156691;23;20149;-87
2022/01/22 13:05:09;;;;;;;27.13;17.23;;;6.60;99.90;;;;;;6156896;23;20170;-87
2022/01/22 13:07:54;;;;;;;28.23;16.17;;;6.70;99.90;;;;;;6157931;23;20160;-87
2022/01/22 13:10:31;;;;;;;23.42;14.65;;;8.40;99.90;;;;;;6156167;23;20157;-88
2022/01/22 13:12:57;;;;;;;21.13;13.88;;;6.60;99.90;;;;;;6157926;23;20513;-87
2022/01/22 13:15:23;;;;;;;16.37;12.80;;;6.60;99.90;;;;;;6157204;23;20156;-88
2022/01/22 13:17:56;;;;;;;20.38;13.43;;;6.70;99.90;;;;;;6158967;23;20202;-85
2022/01/22 13:20:26;;;;;;;16.08;12.65;;;6.70;99.90;;;;;;6162598;23;20328;-86
2022/01/22 13:22:54;;;;;;;16.98;12.38;;;6.70;99.90;;;;;;6161418;23;20304;-86
2022/01/22 13:25:59;;;;;;;19.15;12.50;;;6.70;99.90;;;;;;6160169;23;20535;-86
2022/01/22 13:29:39;;;;;;;18.27;12.10;;;6.80;99.90;;;;;;6160571;23;20192;-87
2022/01/22 13:33:03;;;;;;;15.50;10.93;;;8.10;99.90;;;;;;6130739;23;20419;-87
2022/01/22 13:37:30;;;;;;;13.48;10.77;;;6.70;99.90;;;;;;6155083;23;20511;-86
2022/01/22 13:40:26;;;;;;;19.50;14.05;;;6.50;99.90;;;;;;6153420;23;20212;-87
2022/01/22 13:50:30;;;;;;;29.17;18.33;;;6.40;99.90;;;;;;6157677;23;20203;-87
2022/01/22 13:53:58;;;;;;;33.53;18.73;;;5.50;99.90;;;;;;6158886;23;20160;-87
2022/01/22 13:57:32;;;;;;;29.45;19.20;;;6.60;99.90;;;;;;6156189;23;20216;-88
2022/01/22 14:01:04;;;;;;;35.38;20.08;;;6.60;99.90;;;;;;6154811;23;20487;-88
2022/01/22 14:04:31;;;;;;;34.15;19.88;;;6.60;99.90;;;;;;6157469;23;20169;-87
2022/01/22 14:08:14;;;;;;;;;;;;;;;;;;;;;
2022/01/22 14:11:26;;;;;;;33.50;21.90;;;6.70;99.90;;;;;;6157374;23;20251;-88
2022/01/22 14:14:52;;;;;;;37.75;23.52;;;6.80;99.90;;;;;;6158334;23;20176;-86
2022/01/22 14:18:27;;;;;;;43.47;25.30;;;7.50;99.90;;;;;;6158189;23;20172;-87
2022/01/22 14:21:56;;;;;;;39.22;23.73;;;7.90;99.90;;;;;;6166279;23;20196;-88
2022/01/22 14:25:27;;;;;;;42.00;24.02;;;6.70;99.90;;;;;;6157936;23;20180;-87
2022/01/22 14:28:54;;;;;;;35.53;24.35;;;7.50;99.90;;;;;;6157925;23;20518;-88
2022/01/22 14:32:06;;;;;;;38.33;22.98;;;8.00;99.90;;;;;;6156246;23;20209;-88
2022/01/22 14:35:52;;;;;;;32.38;21.90;;;6.80;99.90;;;;;;6158259;23;20164;-88
2022/01/22 14:39:18;;;;;;;33.38;21.25;;;6.90;99.90;;;;;;6155399;23;20179;-88
2022/01/22 14:46:19;;;;;;;28.58;20.00;;;8.00;99.90;;;;;;6161712;23;20541;-87
2022/01/22 14:49:53;;;;;;;33.65;20.83;;;6.50;99.90;;;;;;6161658;23;20471;-87
2022/01/22 14:53:18;;;;;;;25.52;16.38;;;6.70;99.90;;;;;;6165509;23;20192;-88
2022/01/22 14:56:44;;;;;;;27.48;18.50;;;6.60;99.90;;;;;;6165321;23;20248;-88
2022/01/22 15:00:09;;;;;;;30.85;16.70;;;6.40;99.90;;;;;;6164387;23;20157;-88
2022/01/22 15:03:35;;;;;;;31.65;17.98;;;6.60;99.90;;;;;;6165208;23;20160;-89
2022/01/22 15:07:07;;;;;;;24.20;17.70;;;6.40;99.90;;;;;;6168219;23;20165;-89
2022/01/22 15:10:32;;;;;;;24.88;17.23;;;6.40;99.90;;;;;;6170073;23;20180;-86
2022/01/22 15:13:57;;;;;;;19.77;15.68;;;6.20;99.90;;;;;;6150165;23;20195;-86
2022/01/22 15:20:31;;;;;;;27.38;14.90;;;6.80;99.90;;;;;;6147324;23;20167;-86
2022/01/22 15:23:56;;;;;;;25.30;15.50;;;6.70;99.90;;;;;;6149816;23;20196;-87